Time;durP1;ratioP1;P1;durP2;ratioP2;P2;SDS_P1;SDS_P2;PMS_P1;PMS_P2;Temp;Humidity;BMP_temperature;BMP_pressure;BME280_temperature;BME280_humidity;BME280_pressure;Samples;Min_cycle;Max_cycle;Signal;HPM_P1;HPM_P2
2023/09/19 00:00:35;;;;;;;;;;;;;;;15.41;100.00;96197.16;5167850;27;19993;-74
2023/09/19 00:03:01;;;;;;;;;;;;;;;15.40;100.00;96190.25;5168083;27;19980;-72
2023/09/19 00:05:28;;;;;;;;;;;;;;;15.40;100.00;96194.75;5167345;27;20245;-71
2023/09/19 00:07:55;;;;;;;;;;;;;;;15.38;100.00;96197.63;5167572;27;19959;-72
2023/09/19 00:10:24;;;;;;;;;;;;;;;15.37;100.00;96203.97;5167805;27;19949;-72
2023/09/19 00:12:56;;;;;;;;;;;;;;;15.36;100.00;96194.44;5167689;27;20220;-72
2023/09/19 00:15:22;;;;;;;;;;;;;;;15.37;100.00;96201.34;5167714;27;20019;-71
2023/09/19 00:17:48;;;;;;;;;;;;;;;15.37;100.00;96198.69;5148866;27;19957;-72
2023/09/19 00:20:18;;;;;;;;;;;;;;;15.36;100.00;96202.38;5167130;27;19998;-72
2023/09/19 00:22:44;;;;;;;;;;;;;;;15.37;100.00;96203.16;5167109;27;19969;-77
2023/09/19 00:25:11;;;;;;;;;;;;;;;15.37;100.00;96197.88;5167529;27;19955;-78
2023/09/19 00:27:41;;;;;;;;;;;;;;;15.38;100.00;96196.84;5148462;27;19966;-77
2023/09/19 00:30:12;;;;;;;;;;;;;;;15.38;100.00;96197.63;5167177;27;19979;-77
2023/09/19 00:32:38;;;;;;;;;;;;;;;15.39;100.00;96206.34;5148958;27;20148;-78
2023/09/19 00:35:05;;;;;;;;;;;;;;;15.40;100.00;96200.81;5148589;27;19957;-77
2023/09/19 00:37:30;;;;;;;;;;;;;;;15.41;100.00;96205.06;5148662;27;19965;-76
2023/09/19 00:39:56;;;;;;;;;;;;;;;15.43;100.00;96218.81;5148365;27;19964;-74
2023/09/19 00:42:22;;;;;;;;;;;;;;;15.43;100.00;96210.06;5148596;27;19967;-74
2023/09/19 00:44:51;;;;;;;;;;;;;;;15.39;100.00;96209.81;5167122;27;20134;-75
2023/09/19 00:47:18;;;;;;;;;;;;;;;15.38;100.00;96210.84;5167406;27;19961;-74
2023/09/19 00:49:48;;;;;;;;;;;;;;;15.35;100.00;96207.91;5166650;27;20223;-73
2023/09/19 00:52:15;;;;;;;;;;;;;;;15.33;100.00;96208.19;5166708;27;19955;-74
2023/09/19 00:54:41;;;;;;;;;;;;;;;15.33;100.00;96205.53;5166640;27;19965;-74
2023/09/19 00:57:08;;;;;;;;;;;;;;;15.35;100.00;96213.19;5166698;27;19955;-74
2023/09/19 00:59:35;;;;;;;;;;;;;;;15.36;100.00;96209.50;5166727;27;19984;-78
2023/09/19 01:02:02;;;;;;;;;;;;;;;15.36;100.00;96205.03;5148338;27;19971;-75
2023/09/19 01:04:28;;;;;;;;;;;;;;;15.36;100.00;96202.38;5166330;27;20145;-73
2023/09/19 01:06:55;;;;;;;;;;;;;;;15.36;100.00;96201.59;5166877;27;19953;-74
2023/09/19 01:09:21;;;;;;;;;;;;;;;15.37;100.00;96219.84;5166798;27;19963;-74
2023/09/19 01:11:48;;;;;;;;;;;;;;;15.37;100.00;96214.56;5147963;27;20242;-74
2023/09/19 01:14:18;;;;;;;;;;;;;;;15.36;100.00;96210.31;5166430;27;19954;-74
2023/09/19 01:16:50;;;;;;;;;;;;;;;15.36;100.00;96209.50;5148315;27;19965;-77
2023/09/19 01:19:34;;;;;;;;;;;;;;;15.36;100.00;96206.88;5166338;27;19949;-78
2023/09/19 01:22:08;;;;;;;;;;;;;;;15.35;100.00;96207.91;5130437;27;19971;-79
2023/09/19 01:24:40;;;;;;;;;;;;;;;15.33;100.00;96223.22;5147857;27;19977;-88
2023/09/19 01:27:17;;;;;;;;;;;;;;;15.30;100.00;96227.16;5148032;27;19955;-76
2023/09/19 01:29:47;;;;;;;;;;;;;;;15.29;100.00;96230.88;5166637;27;19950;-78
2023/09/19 01:32:15;;;;;;;;;;;;;;;15.27;100.00;96235.63;5165964;27;19943;-78
2023/09/19 01:34:48;;;;;;;;;;;;;;;15.26;100.00;96225.28;5166445;27;19967;-75
2023/09/19 01:37:19;;;;;;;;;;;;;;;15.20;100.00;96235.00;5130500;27;19983;-72
2023/09/19 01:39:49;;;;;;;;;;;;;;;15.17;100.00;96246.09;5169469;27;19962;-73
2023/09/19 01:42:22;;;;;;;;;;;;;;;15.14;100.00;96242.13;5151922;27;19963;-71
2023/09/19 01:44:48;;;;;;;;;;;;;;;15.12;100.00;96241.56;5170303;27;19962;-72
2023/09/19 01:47:22;;;;;;;;;;;;;;;15.10;100.00;96238.38;5170520;27;19987;-73
2023/09/19 01:50:06;;;;;;;;;;;;;;;15.09;100.00;96239.41;5170637;27;19963;-73
2023/09/19 01:52:36;;;;;;;;;;;;;;;15.08;100.00;96245.75;5170050;27;19948;-74
2023/09/19 01:55:07;;;;;;;;;;;;;;;15.07;100.00;96244.16;5152180;27;19960;-76
2023/09/19 01:57:35;;;;;;;;;;;;;;;15.08;100.00;96245.75;5151505;27;19960;-76
2023/09/19 02:00:06;;;;;;;;;;;;;;;15.09;100.00;96254.47;5170571;27;19961;-77
2023/09/19 02:02:39;;;;;;;;;;;;;;;15.10;100.00;96250.78;5170304;27;19963;-75
2023/09/19 02:05:06;;;;;;;;;;;;;;;15.10;100.00;96248.94;5170115;27;19952;-74
2023/09/19 02:07:32;;;;;;;;;;;;;;;15.09;100.00;96251.84;5170217;27;20125;-78
2023/09/19 02:10:05;;;;;;;;;;;;;;;15.08;100.00;96252.91;5151529;27;19963;-76
2023/09/19 02:12:32;;;;;;;;;;;;;;;15.07;100.00;96253.94;5151610;27;19956;-73
2023/09/19 02:14:59;;;;;;;;;;;;;;;15.05;100.00;96254.16;5169536;27;19947;-74
2023/09/19 02:17:28;;;;;;;;;;;;;;;15.02;100.00;96258.13;5169610;27;19952;-74
2023/09/19 02:19:54;;;;;;;;;;;;;;;15.01;100.00;96251.25;5151510;27;19951;-74
2023/09/19 02:22:24;;;;;;;;;;;;;;;15.00;100.00;96249.66;5169484;27;19961;-74
2023/09/19 02:24:50;;;;;;;;;;;;;;;14.99;100.00;96244.59;5151330;27;20245;-74
2023/09/19 02:27:17;;;;;;;;;;;;;;;14.96;100.00;96256.47;5133807;27;19961;-74
2023/09/19 02:29:43;;;;;;;;;;;;;;;14.93;100.00;96269.38;5151127;27;19953;-76
2023/09/19 02:32:09;;;;;;;;;;;;;;;14.92;100.00;96268.56;5150828;27;20001;-76
2023/09/19 02:34:36;;;;;;;;;;;;;;;14.90;100.00;96264.59;5169569;27;19953;-78
2023/09/19 02:37:04;;;;;;;;;;;;;;;14.88;100.00;96264.06;5169605;27;19964;-83
2023/09/19 02:39:31;;;;;;;;;;;;;;;14.86;100.00;96266.16;5169640;27;19958;-82
2023/09/19 02:41:57;;;;;;;;;;;;;;;14.84;100.00;96271.66;5168994;27;19959;-84
2023/09/19 02:44:23;;;;;;;;;;;;;;;14.81;100.00;96266.91;5151360;27;20225;-80
2023/09/19 02:46:49;;;;;;;;;;;;;;;14.79;100.00;96263.72;5134020;27;19948;-77
2023/09/19 02:49:17;;;;;;;;;;;;;;;14.75;100.00;96273.16;5169324;27;20138;-74
2023/09/19 02:51:43;;;;;;;;;;;;;;;14.75;100.00;96275.81;5167841;27;20249;-74
2023/09/19 02:54:10;;;;;;;;;;;;;;;14.73;100.00;96265.47;5169542;27;19964;-74
2023/09/19 02:56:36;;;;;;;;;;;;;;;14.72;100.00;96277.09;5133577;27;19959;-73
2023/09/19 02:59:02;;;;;;;;;;;;;;;14.73;100.00;96281.31;5169231;27;20310;-73
2023/09/19 03:01:29;;;;;;;;;;;;;;;14.71;100.00;96278.13;5168765;27;19948;-74
2023/09/19 03:03:55;;;;;;;;;;;;;;;14.71;100.00;96272.06;5169002;27;19963;-73
2023/09/19 03:06:21;;;;;;;;;;;;;;;14.71;100.00;96277.34;5169064;27;19952;-79
2023/09/19 03:08:49;;;;;;;;;;;;;;;14.71;100.00;96277.34;5169082;27;19966;-81
2023/09/19 03:11:18;;;;;;;;;;;;;;;14.72;100.00;96278.94;5168467;27;19947;-86
2023/09/19 03:13:45;;;;;;;;;;;;;;;14.73;100.00;96281.31;5169057;27;19951;-84
2023/09/19 03:16:11;;;;;;;;;;;;;;;14.75;100.00;96283.72;5150487;27;19960;-81
2023/09/19 03:18:37;;;;;;;;;;;;;;;14.78;100.00;96283.22;5168587;27;20028;-80
2023/09/19 03:21:03;;;;;;;;;;;;;;;14.79;100.00;96284.81;5150310;27;20020;-83
2023/09/19 03:23:29;;;;;;;;;;;;;;;14.81;100.00;96285.38;5150033;27;19973;-85
2023/09/19 03:25:56;;;;;;;;;;;;;;;14.81;100.00;96288.81;5150264;27;19979;-73
2023/09/19 03:28:22;;;;;;;;;;;;;;;14.84;100.00;96292.00;5168468;27;20109;-74
2023/09/19 03:31:01;;;;;;;;;;;;;;;14.84;100.00;96287.50;5168133;27;19959;-74
2023/09/19 03:33:27;;;;;;;;;;;;;;;14.85;100.00;96288.31;5168595;27;20254;-74
2023/09/19 03:35:53;;;;;;;;;;;;;;;14.85;100.00;96289.13;5168362;27;19996;-75
2023/09/19 03:38:19;;;;;;;;;;;;;;;14.86;100.00;96293.34;5168018;27;19941;-76
2023/09/19 03:40:45;;;;;;;;;;;;;;;14.86;100.00;96290.69;5167891;27;19956;-77
2023/09/19 03:43:11;;;;;;;;;;;;;;;14.87;100.00;96289.66;5167919;27;19967;-74
2023/09/19 03:45:38;;;;;;;;;;;;;;;14.88;100.00;96293.09;5149984;27;19964;-74
2023/09/19 03:48:10;;;;;;;;;;;;;;;14.87;100.00;96286.22;5167905;27;20015;-74
2023/09/19 03:50:36;;;;;;;;;;;;;;;14.87;100.00;96283.59;5167944;27;19959;-73
2023/09/19 03:53:02;;;;;;;;;;;;;;;14.85;100.00;96285.69;5149498;27;20005;-73
2023/09/19 03:55:30;;;;;;;;;;;;;;;14.86;100.00;96279.34;5168172;27;20016;-73
2023/09/19 03:57:56;;;;;;;;;;;;;;;14.87;100.00;96286.22;5168032;27;20141;-73
2023/09/19 04:00:24;;;;;;;;;;;;;;;14.85;100.00;96281.19;5167491;27;19946;-72
2023/09/19 04:02:51;;;;;;;;;;;;;;;14.82;100.00;96277.22;5148848;27;19965;-75
2023/09/19 04:05:17;;;;;;;;;;;;;;;14.81;100.00;96280.09;5168243;27;19941;-76
2023/09/19 04:07:43;;;;;;;;;;;;;;;14.80;100.00;96281.94;5167482;27;20012;-74
2023/09/19 04:10:11;;;;;;;;;;;;;;;14.81;100.00;96283.53;5167538;27;19948;-74
2023/09/19 04:12:37;;;;;;;;;;;;;;;14.81;100.00;96278.25;5167742;27;19963;-74
2023/09/19 04:15:04;;;;;;;;;;;;;;;14.82;100.00;96285.13;5167490;27;19950;-74
2023/09/19 04:17:30;;;;;;;;;;;;;;;14.85;100.00;96285.69;5131804;27;19969;-73
2023/09/19 04:19:55;;;;;;;;;;;;;;;14.85;100.00;96288.31;5167589;27;19956;-74
2023/09/19 04:22:21;;;;;;;;;;;;;;;14.84;100.00;96279.59;5167506;27;19963;-74
2023/09/19 04:24:47;;;;;;;;;;;;;;;14.84;100.00;96284.06;5167383;27;20132;-78
2023/09/19 04:27:14;;;;;;;;;;;;;;;14.82;100.00;96281.66;5167395;27;19957;-79
2023/09/19 04:29:41;;;;;;;;;;;;;;;14.80;100.00;96289.88;5167743;27;19954;-80
2023/09/19 04:32:07;;;;;;;;;;;;;;;14.79;100.00;96296.19;5167375;27;19960;-76
2023/09/19 04:34:34;;;;;;;;;;;;;;;14.79;100.00;96290.09;5167270;27;19957;-77
2023/09/19 04:37:00;;;;;;;;;;;;;;;14.77;100.00;96292.19;5148892;27;19957;-77
2023/09/19 04:39:26;;;;;;;;;;;;;;;14.76;100.00;96295.88;5131862;27;19963;-77
2023/09/19 04:41:53;;;;;;;;;;;;;;;14.77;100.00;96294.84;5148293;27;20265;-74
2023/09/19 04:44:18;;;;;;;;;;;;;;;14.76;100.00;96298.50;5148858;27;20114;-74
2023/09/19 04:46:46;;;;;;;;;;;;;;;14.77;100.00;96300.13;5166894;27;19974;-74
2023/09/19 04:49:12;;;;;;;;;;;;;;;14.77;100.00;96300.91;5148308;27;19954;-74
2023/09/19 04:51:38;;;;;;;;;;;;;;;14.79;100.00;96309.38;5166862;27;20025;-74
2023/09/19 04:54:04;;;;;;;;;;;;;;;14.84;100.00;96307.84;5148331;27;19947;-74
2023/09/19 04:56:31;;;;;;;;;;;;;;;14.82;100.00;96306.25;5148421;27;19953;-74
2023/09/19 04:58:58;;;;;;;;;;;;;;;14.85;100.00;96314.72;5166878;27;19931;-78
2023/09/19 05:01:24;;;;;;;;;;;;;;;14.85;100.00;96323.44;5131063;27;19964;-74
2023/09/19 05:03:53;;;;;;;;;;;;;;;14.84;100.00;96321.03;5166265;27;19955;-72
2023/09/19 05:06:22;;;;;;;;;;;;;;;14.85;100.00;96322.66;5166339;27;20236;-72
2023/09/19 05:08:51;;;;;;;;;;;;;;;14.86;100.00;96325.00;5166732;27;19969;-72
2023/09/19 05:11:21;;;;;;;;;;;;;;;14.89;100.00;96327.19;5166795;27;19959;-72
2023/09/19 05:13:47;;;;;;;;;;;;;;;14.92;100.00;96333.78;5165650;27;20216;-73
2023/09/19 05:16:13;;;;;;;;;;;;;;;14.94;100.00;96331.72;5166294;27;20001;-79
2023/09/19 05:18:39;;;;;;;;;;;;;;;14.95;100.00;96331.47;5130312;27;20338;-79
2023/09/19 05:21:05;;;;;;;;;;;;;;;14.96;100.00;96333.03;5147627;27;20219;-79
2023/09/19 05:23:31;;;;;;;;;;;;;;;14.97;100.00;96339.94;5147789;27;19957;-78
2023/09/19 05:25:59;;;;;;;;;;;;;;;14.97;100.00;96347.03;5166578;27;19956;-77
2023/09/19 05:28:26;;;;;;;;;;;;;;;14.99;100.00;96348.41;5166598;27;19951;-77
2023/09/19 05:30:52;;;;;;;;;;;;;;;15.01;100.00;96350.78;5148211;27;19950;-77
2023/09/19 05:33:19;;;;;;;;;;;;;;;15.03;100.00;96353.97;5148351;27;19961;-78
2023/09/19 05:35:46;;;;;;;;;;;;;;;15.02;100.00;96355.03;5130549;27;19962;-74
2023/09/19 05:38:13;;;;;;;;;;;;;;;15.01;100.00;96345.50;5166338;27;19956;-73
2023/09/19 05:40:42;;;;;;;;;;;;;;;14.97;100.00;96354.97;5166190;27;19962;-73
2023/09/19 05:43:08;;;;;;;;;;;;;;;14.94;100.00;96355.47;5166191;27;20141;-73
2023/09/19 05:45:34;;;;;;;;;;;;;;;14.94;100.00;96373.97;5166228;27;19954;-73
2023/09/19 05:48:07;;;;;;;;;;;;;;;14.93;100.00;96377.63;5165881;27;20123;-73
2023/09/19 05:50:33;;;;;;;;;;;;;;;14.90;100.00;96378.13;5147803;27;19962;-73
2023/09/19 05:52:59;;;;;;;;;;;;;;;14.89;100.00;96382.63;5166448;27;20232;-78
2023/09/19 05:55:25;;;;;;;;;;;;;;;14.88;100.00;96390.78;5166300;27;20023;-78
2023/09/19 05:57:51;;;;;;;;;;;;;;;14.88;100.00;96386.28;5148118;27;19946;-77
2023/09/19 06:00:24;;;;;;;;;;;;;;;14.90;100.00;96388.69;5148059;27;19965;-77
2023/09/19 06:02:51;;;;;;;;;;;;;;;14.93;100.00;96385.53;5166178;27;20264;-77
2023/09/19 06:05:16;;;;;;;;;;;;;;;14.93;100.00;96389.00;5165876;27;19978;-78
2023/09/19 06:07:42;;;;;;;;;;;;;;;14.97;100.00;96386.66;5165957;27;20224;-78
2023/09/19 06:10:09;;;;;;;;;;;;;;;15.01;100.00;96395.69;5147681;27;20220;-78
2023/09/19 06:12:39;;;;;;;;;;;;;;;15.01;100.00;96399.13;5147609;27;19957;-72
2023/09/19 06:15:06;;;;;;;;;;;;;;;15.02;100.00;96405.22;5166159;27;19953;-78
2023/09/19 06:17:31;;;;;;;;;;;;;;;15.02;100.00;96407.84;5165602;27;19961;-77
2023/09/19 06:19:57;;;;;;;;;;;;;;;15.03;100.00;96414.72;5166145;27;19948;-77
2023/09/19 06:22:24;;;;;;;;;;;;;;;15.02;100.00;96416.56;5166046;27;19956;-78
2023/09/19 06:24:50;;;;;;;;;;;;;;;15.05;100.00;96404.69;5148225;27;19947;-78
2023/09/19 06:27:15;;;;;;;;;;;;;;;15.09;100.00;96421.66;5151542;27;19990;-77
2023/09/19 06:29:41;;;;;;;;;;;;;;;15.12;100.00;96409.78;5151645;27;19953;-72
2023/09/19 06:32:08;;;;;;;;;;;;;;;15.13;100.00;96422.75;5169459;27;19955;-77
2023/09/19 06:34:34;;;;;;;;;;;;;;;15.17;100.00;96417.78;5134223;27;20146;-78
2023/09/19 06:37:00;;;;;;;;;;;;;;;15.21;100.00;96421.53;5169471;27;19952;-78
2023/09/19 06:39:26;;;;;;;;;;;;;;;15.26;100.00;96420.78;5169375;27;19975;-78
2023/09/19 06:41:55;;;;;;;;;;;;;;;15.31;100.00;96424.28;5169703;27;20232;-77
2023/09/19 06:44:24;;;;;;;;;;;;;;;15.36;100.00;96420.91;5169581;27;19968;-77
2023/09/19 06:46:51;;;;;;;;;;;;;;;15.38;100.00;96424.09;5169010;27;19968;-77
2023/09/19 06:49:17;;;;;;;;;;;;;;;15.45;100.00;96429.16;5169535;27;20129;-72
2023/09/19 06:51:43;;;;;;;;;;;;;;;15.59;100.00;96431.16;5169422;27;19964;-77
2023/09/19 06:54:10;;;;;;;;;;;;;;;15.69;100.00;96433.13;5150798;27;20101;-77
2023/09/19 06:56:35;;;;;;;;;;;;;;;15.80;100.00;96436.69;5169597;27;19960;-78
2023/09/19 06:59:03;;;;;;;;;;;;;;;15.92;100.00;96442.59;5169309;27;20137;-77
2023/09/19 07:01:29;;;;;;;;;;;;;;;16.09;100.00;96428.47;5168923;27;20275;-78
2023/09/19 07:03:54;;;;;;;;;;;;;;;16.23;100.00;96440.19;5168831;27;19957;-77
2023/09/19 07:06:20;;;;;;;;;;;;;;;16.33;100.00;96439.47;5168568;27;19951;-77
2023/09/19 07:08:46;;;;;;;;;;;;;;;16.40;100.00;96435.56;5169235;27;20010;-72
2023/09/19 07:11:12;;;;;;;;;;;;;;;16.50;100.00;96440.09;5169021;27;19967;-72
2023/09/19 07:13:39;;;;;;;;;;;;;;;16.57;100.00;96453.91;5168884;27;20242;-72
2023/09/19 07:16:04;;;;;;;;;;;;;;;16.59;100.00;96451.03;5169048;27;19952;-72
2023/09/19 07:18:31;;;;;;;;;;;;;;;16.67;100.00;96450.53;5169005;27;20240;-71
2023/09/19 07:21:00;;;;;;;;;;;;;;;16.75;100.00;96457.19;5168802;27;19959;-72
2023/09/19 07:23:27;;;;;;;;;;;;;;;16.82;100.00;96455.94;5168738;27;19973;-72
2023/09/19 07:25:56;;;;;;;;;;;;;;;16.92;100.00;96457.81;5168795;27;19948;-72
2023/09/19 07:28:22;;;;;;;;;;;;;;;17.02;100.00;96465.03;5168547;27;19961;-73
2023/09/19 07:30:48;;;;;;;;;;;;;;;17.00;100.00;96453.91;5168874;27;19947;-73
2023/09/19 07:33:14;;;;;;;;;;;;;;;17.01;100.00;96455.50;5150129;27;20002;-73
2023/09/19 07:35:40;;;;;;;;;;;;;;;17.02;100.00;96457.88;5167822;27;19958;-72
2023/09/19 07:38:07;;;;;;;;;;;;;;;17.08;100.00;96466.66;5167775;27;19948;-73
2023/09/19 07:40:33;;;;;;;;;;;;;;;17.14;100.00;96470.13;5168472;27;19953;-73
2023/09/19 07:43:01;;;;;;;;;;;;;;;17.22;100.00;96467.00;5168421;27;20148;-72
2023/09/19 07:45:30;;;;;;;;;;;;;;;17.30;100.00;96463.81;5168400;27;19954;-75
2023/09/19 07:47:56;;;;;;;;;;;;;;;17.34;100.00;96472.84;5168336;27;19949;-76
2023/09/19 07:50:22;;;;;;;;;;;;;;;17.45;100.00;96468.38;5168308;27;20024;-76
2023/09/19 07:52:50;;;;;;;;;;;;;;;17.63;100.00;96467.09;5168447;27;19971;-76
2023/09/19 07:55:17;;;;;;;;;;;;;;;17.78;100.00;96461.00;5149712;27;20234;-76
2023/09/19 07:57:43;;;;;;;;;;;;;;;17.94;100.00;96469.84;5149671;27;19958;-76
2023/09/19 08:00:12;;;;;;;;;;;;;;;18.05;100.00;96458.94;5149229;27;19947;-75
2023/09/19 08:02:39;;;;;;;;;;;;;;;18.07;100.00;96453.38;5167758;27;19959;-77
2023/09/19 08:05:11;;;;;;;;;;;;;;;17.98;100.00;96466.38;5167412;27;19947;-75
2023/09/19 08:07:40;;;;;;;;;;;;;;;17.95;100.00;96482.03;5148695;27;20258;-74
2023/09/19 08:10:13;;;;;;;;;;;;;;;17.77;100.00;96491.25;5167808;27;19957;-75
2023/09/19 08:12:46;;;;;;;;;;;;;;;17.62;100.00;96484.88;5167900;27;20024;-75
2023/09/19 08:15:15;;;;;;;;;;;;;;;17.53;100.00;96497.03;5149447;27;20266;-75
2023/09/19 08:17:41;;;;;;;;;;;;;;;17.56;100.00;96488.56;5167771;27;19960;-74
2023/09/19 08:20:15;;;;;;;;;;;;;;;17.55;100.00;96481.66;5167709;27;20133;-77
2023/09/19 08:22:47;;;;;;;;;;;;;;;17.37;100.00;96498.06;5149062;27;19959;-72
2023/09/19 08:25:18;;;;;;;;;;;;;;;17.31;100.00;96499.88;5167654;27;19961;-74
2023/09/19 08:27:49;;;;;;;;;;;;;;;17.24;100.00;96496.69;5167534;27;19950;-74
2023/09/19 08:30:20;;;;;;;;;;;;;;;17.15;100.00;96506.16;5167572;27;19962;-72
2023/09/19 08:32:46;;;;;;;;;;;;;;;17.17;100.00;96506.69;5167000;27;19957;-73
2023/09/19 08:35:12;;;;;;;;;;;;;;;17.14;100.00;96523.91;5167281;27;19967;-73
2023/09/19 08:37:38;;;;;;;;;;;;;;;17.02;100.00;96515.38;5167394;27;20235;-74
2023/09/19 08:40:06;;;;;;;;;;;;;;;16.95;100.00;96515.59;5166890;27;19955;-74
2023/09/19 08:42:47;;;;;;;;;;;;;;;16.93;100.00;96527.53;5167273;27;19949;-72
2023/09/19 08:45:13;;;;;;;;;;;;;;;17.08;100.00;96524.94;5166899;27;19972;-72
2023/09/19 08:47:43;;;;;;;;;;;;;;;17.09;100.00;96518.59;5166443;27;19947;-72
2023/09/19 08:50:18;;;;;;;;;;;;;;;17.11;100.00;96537.66;5166799;27;19979;-72
2023/09/19 08:52:46;;;;;;;;;;;;;;;17.19;100.00;96521.28;5166695;27;19948;-72
2023/09/19 08:55:20;;;;;;;;;;;;;;;17.29;100.00;96528.50;5167035;27;19958;-72
2023/09/19 08:57:48;;;;;;;;;;;;;;;17.40;100.00;96513.44;5167029;27;19949;-75
2023/09/19 09:00:17;;;;;;;;;;;;;;;17.52;100.00;96500.75;5166585;27;19983;-74
2023/09/19 09:02:43;;;;;;;;;;;;;;;17.62;100.00;96492.03;5166448;27;19948;-74
2023/09/19 09:05:14;;;;;;;;;;;;;;;17.63;100.00;96515.63;5166575;27;19959;-74
2023/09/19 09:07:40;;;;;;;;;;;;;;;17.62;100.00;96514.03;5167031;27;19957;-73
2023/09/19 09:10:06;;;;;;;;;;;;;;;17.71;100.00;96516.97;5166940;27;19954;-74
2023/09/19 09:12:32;;;;;;;;;;;;;;;17.78;100.00;96484.88;5166507;27;19965;-75
2023/09/19 09:15:03;;;;;;;;;;;;;;;17.84;100.00;96497.13;5166592;27;19950;-71
2023/09/19 09:17:30;;;;;;;;;;;;;;;17.83;100.00;96493.69;5166631;27;20237;-74
2023/09/19 09:19:57;;;;;;;;;;;;;;;17.80;100.00;96502.13;5148047;27;19955;-75
2023/09/19 09:22:23;;;;;;;;;;;;;;;17.79;100.00;96516.47;5166124;27;19956;-75
2023/09/19 09:25:03;;;;;;;;;;;;;;;17.80;100.00;96523.34;5165963;27;19959;-75
2023/09/19 09:27:31;;;;;;;;;;;;;;;17.82;100.00;96510.66;5166268;27;19956;-75
2023/09/19 09:29:59;;;;;;;;;;;;;;;17.92;100.00;96504.56;5166349;27;19949;-75
2023/09/19 09:32:28;;;;;;;;;;;;;;;17.99;100.00;96488.41;5166252;27;19994;-75
2023/09/19 09:34:58;;;;;;;;;;;;;;;18.03;100.00;96497.41;5166233;27;19969;-73
2023/09/19 09:37:26;;;;;;;;;;;;;;;18.05;98.93;96468.75;5166302;27;19961;-74
2023/09/19 09:40:12;;;;;;;;;;;;;;;18.09;100.00;96480.44;5147782;27;19961;-75
2023/09/19 09:42:41;;;;;;;;;;;;;;;18.16;100.00;96496.09;5147723;27;19956;-74
2023/09/19 09:45:19;;;;;;;;;;;;;;;18.21;98.21;96467.72;5166080;27;19953;-74
2023/09/19 09:47:58;;;;;;;;;;;;;;;18.21;100.00;96498.78;5166479;27;19964;-74
2023/09/19 09:50:29;;;;;;;;;;;;;;;18.15;98.68;96479.38;5166110;27;19954;-76
2023/09/19 09:53:03;;;;;;;;;;;;;;;18.16;96.88;96469.56;5166390;27;19958;-73
2023/09/19 09:55:30;;;;;;;;;;;;;;;18.23;99.49;96483.38;5166205;27;20107;-73
2023/09/19 09:58:16;;;;;;;;;;;;;;;18.28;98.21;96470.09;5166145;27;20125;-74
2023/09/19 10:00:57;;;;;;;;;;;;;;;18.37;98.43;96471.16;5168979;27;20143;-74
2023/09/19 10:03:39;;;;;;;;;;;;;;;18.50;100.00;96490.25;5170599;27;20146;-74
2023/09/19 10:06:34;;;;;;;;;;;;;;;18.60;93.14;96442.44;5170421;27;20139;-74
2023/09/19 10:09:36;;;;;;;;;;;;;;;18.71;92.92;96444.03;5169431;27;19957;-74
2023/09/19 10:12:05;;;;;;;;;;;;;;;18.85;88.14;96413.16;5164886;27;20249;-73
2023/09/19 10:14:34;;;;;;;;;;;;;;;18.96;86.86;96397.19;5151872;27;19976;-74
2023/09/19 10:17:04;;;;;;;;;;;;;;;19.09;92.42;96436.47;5170329;27;19951;-73
2023/09/19 10:19:36;;;;;;;;;;;;;;;19.24;92.25;96431.09;5170345;27;19954;-73
2023/09/19 10:22:02;;;;;;;;;;;;;;;19.25;97.79;96456.59;5169764;27;20223;-73
2023/09/19 10:24:28;;;;;;;;;;;;;;;19.17;87.96;96404.00;5169709;27;19965;-73
2023/09/19 10:26:55;;;;;;;;;;;;;;;19.08;89.03;96418.13;5169808;27;20133;-74
2023/09/19 10:29:21;;;;;;;;;;;;;;;18.99;83.59;96381.50;5170057;27;19955;-73
2023/09/19 10:31:53;;;;;;;;;;;;;;;18.99;92.44;96439.97;5169777;27;20234;-78
2023/09/19 10:34:20;;;;;;;;;;;;;;;19.14;93.23;96439.09;5169810;27;20254;-77
2023/09/19 10:36:46;;;;;;;;;;;;;;;19.38;91.51;96414.53;5169176;27;19945;-77
2023/09/19 10:39:14;;;;;;;;;;;;;;;19.63;90.16;96409.06;5169689;27;19935;-78
2023/09/19 10:41:40;;;;;;;;;;;;;;;19.83;89.64;96420.66;5169712;27;20233;-77
2023/09/19 10:44:06;;;;;;;;;;;;;;;20.12;89.50;96414.59;5169738;27;19961;-77
2023/09/19 10:46:36;;;;;;;;;;;;;;;20.37;85.16;96387.72;5169282;27;19953;-71
2023/09/19 10:49:02;;;;;;;;;;;;;;;20.63;89.93;96414.09;5169296;27;19954;-74
2023/09/19 10:51:32;;;;;;;;;;;;;;;20.79;85.83;96399.53;5150759;27;20088;-71
2023/09/19 10:54:01;;;;;;;;;;;;;;;21.02;88.69;96407.78;5169334;27;19953;-71
2023/09/19 10:56:32;;;;;;;;;;;;;;;21.11;81.36;96382.09;5169442;27;19958;-71
2023/09/19 10:59:09;;;;;;;;;;;;;;;21.03;83.39;96396.84;5169372;27;20227;-71
2023/09/19 11:01:58;;;;;;;;;;;;;;;20.87;88.89;96432.75;5168834;27;19946;-71
2023/09/19 11:04:31;;;;;;;;;;;;;;;20.64;88.32;96431.66;5169374;27;19977;-71
2023/09/19 11:07:03;;;;;;;;;;;;;;;20.47;88.06;96426.75;5168853;27;19954;-71
2023/09/19 11:09:48;;;;;;;;;;;;;;;20.28;88.27;96440.78;5127428;22;19967;-71
2023/09/19 11:12:40;;;;;;;;;;;;;;;20.16;91.62;96460.84;5067801;28;19961;-71
2023/09/19 11:15:11;;;;;;;;;;;;;;;20.09;89.31;96434.53;5086927;28;19948;-71
2023/09/19 11:17:41;;;;;;;;;;;;;;;20.18;89.71;96424.09;5086317;28;20223;-72
2023/09/19 11:25:43;;;;;;;;;;;;;;;20.12;93.46;96455.31;5086561;28;20151;-75
2023/09/19 11:28:15;;;;;;;;;;;;;;;20.04;89.00;96429.28;5086602;28;19956;-77
2023/09/19 11:30:45;;;;;;;;;;;;;;;20.06;91.96;96443.88;5086503;28;19958;-76
2023/09/19 11:33:20;;;;;;;;;;;;;;;20.00;91.73;96441.56;5086434;28;20124;-77
2023/09/19 11:36:14;;;;;;;;;;;;;;;19.84;90.81;96433.69;5102725;28;19954;-77
2023/09/19 11:38:52;;;;;;;;;;;;;;;19.68;88.66;96432.97;5105642;28;20227;-77
2023/09/19 11:41:29;;;;;;;;;;;;;;;19.52;86.24;96412.84;5106678;28;20150;-76
2023/09/19 11:44:00;;;;;;;;;;;;;;;19.45;88.03;96421.13;5106615;28;19957;-72
2023/09/19 11:46:29;;;;;;;;;;;;;;;19.68;89.87;96438.28;5071935;28;19961;-76
2023/09/19 11:49:07;;;;;;;;;;;;;;;19.83;92.00;96441.94;5106474;28;19963;-75
2023/09/19 11:51:39;;;;;;;;;;;;;;;19.87;88.80;96425.13;5106657;28;20131;-75
2023/09/19 11:54:13;;;;;;;;;;;;;;;19.88;90.93;96441.91;5106351;28;19955;-75
2023/09/19 11:56:40;;;;;;;;;;;;;;;20.11;87.89;96413.75;5088125;28;19959;-75
2023/09/19 11:59:08;;;;;;;;;;;;;;;20.37;88.16;96426.84;5106467;28;19951;-75
2023/09/19 12:01:37;;;;;;;;;;;;;;;20.44;83.97;96384.72;5088068;28;19964;-75
2023/09/19 12:04:04;;;;;;;;;;;;;;;20.38;86.18;96399.94;5106107;28;19968;-78
2023/09/19 12:06:32;;;;;;;;;;;;;;;20.32;88.83;96410.94;5106312;28;19950;-78
2023/09/19 12:09:11;;;;;;;;;;;;;;;20.30;88.49;96415.75;5106081;28;19980;-78
2023/09/19 12:11:43;;;;;;;;;;;;;;;20.46;87.35;96399.31;5106268;28;19943;-78
2023/09/19 12:14:09;;;;;;;;;;;;;;;20.57;82.22;96375.25;5105969;28;20242;-79
2023/09/19 12:16:36;;;;;;;;;;;;;;;20.65;86.51;96396.75;5105521;28;19956;-79
2023/09/19 12:19:20;;;;;;;;;;;;;;;20.51;83.24;96389.69;5105555;28;20113;-71
2023/09/19 12:21:54;;;;;;;;;;;;;;;20.37;82.48;96376.25;5105863;28;19974;-76
2023/09/19 12:24:20;;;;;;;;;;;;;;;20.35;83.60;96376.53;5105522;28;19997;-77
2023/09/19 12:26:52;;;;;;;;;;;;;;;20.38;82.64;96364.53;5105425;28;19976;-77
2023/09/19 12:29:19;;;;;;;;;;;;;;;20.36;86.18;96378.13;5105798;28;19954;-77
2023/09/19 12:31:50;;;;;;;;;;;;;;;20.21;81.70;96367.63;5105650;28;19951;-77
2023/09/19 12:34:19;;;;;;;;;;;;;;;20.08;86.53;96401.03;5105739;28;20144;-77
2023/09/19 12:36:45;;;;;;;;;;;;;;;20.05;88.21;96407.72;5105371;28;20230;-73
2023/09/19 12:39:11;;;;;;;;;;;;;;;20.08;88.71;96404.47;5087721;28;19967;-73
2023/09/19 12:41:37;;;;;;;;;;;;;;;20.26;86.48;96387.03;5105196;28;19955;-75
2023/09/19 12:44:08;;;;;;;;;;;;;;;20.50;87.36;96390.78;5105364;28;19962;-75
2023/09/19 12:46:35;;;;;;;;;;;;;;;20.74;84.35;96366.81;5105146;28;19966;-75
2023/09/19 12:49:18;;;;;;;;;;;;;;;20.78;80.04;96349.19;5105171;28;19956;-75
2023/09/19 12:51:44;;;;;;;;;;;;;;;20.88;80.42;96360.50;5087110;28;20240;-75